South Littleton, United Kingdom
Current Conditions -  °F | °C
As of 8:20 AM on Friday 21 Nov 2014 (Local Time) from EGBJ Reporting Station
Scattered Clouds Scattered Clouds  
Wind Chill: 43°   Ceiling: Unl
Heat Index: 46°   Visibility: 4mi
Dew Point: 43°   Wind: 7mph
Humidity: 87%   Direction: 110°ESE
Pressure: 30.09"   Gusts: NA
Location:  52.11°N, 1.89°W
Report Text: EGBJ 210820Z 11006KT 6000 FEW010 SCT014 08/06 Q1019
Loading
Personal Weather Stations






























Interactive Weather Map New forecast layout! Learn more

10-Day Weather Forecast

Advertisements
Track Severe Weather on mobile